Time;durP1;ratioP1;P1;durP2;ratioP2;P2;SDS_P1;SDS_P2;PMS_P1;PMS_P2;Temp;Humidity;BMP_temperature;BMP_pressure;BME280_temperature;BME280_humidity;BME280_pressure;Samples;Min_cycle;Max_cycle;Signal;HPM_P1;HPM_P2
2021/04/10 00:00:07;;;;;;;2.50;1.10;;;11.80;99.90;;;;;;4953113;28;20050;-92
2021/04/10 00:02:33;;;;;;;1.98;1.17;;;11.80;99.90;;;;;;4955851;28;20106;-92
2021/04/10 00:04:59;;;;;;;4.97;1.30;;;11.90;99.90;;;;;;4965668;23;20473;-93
2021/04/10 00:07:25;;;;;;;4.38;1.40;;;11.80;99.90;;;;;;4950527;29;20530;-93
2021/04/10 00:09:51;;;;;;;3.38;1.08;;;11.80;99.90;;;;;;4935838;29;20031;-93
2021/04/10 00:12:16;;;;;;;2.80;1.05;;;12.10;99.90;;;;;;4966113;28;20110;-90
2021/04/10 00:14:42;;;;;;;2.17;1.10;;;11.70;99.90;;;;;;4933376;29;20087;-91
2021/04/10 00:17:08;;;;;;;4.32;1.27;;;11.90;99.90;;;;;;4935714;29;20039;-91
2021/04/10 00:19:34;;;;;;;2.45;1.27;;;11.80;99.90;;;;;;4934475;29;20063;-91
2021/04/10 00:22:00;;;;;;;2.88;1.27;;;11.80;99.90;;;;;;4936081;29;20031;-90
2021/04/10 00:24:26;;;;;;;3.72;1.15;;;11.70;99.90;;;;;;4935562;29;20043;-91
2021/04/10 00:26:52;;;;;;;2.58;1.10;;;11.70;99.90;;;;;;4934901;29;20031;-90
2021/04/10 00:29:17;;;;;;;2.58;1.10;;;11.60;99.90;;;;;;4934178;29;20026;-91
2021/04/10 00:31:43;;;;;;;4.38;1.20;;;11.60;99.90;;;;;;4932270;29;20481;-91
2021/04/10 00:34:09;;;;;;;2.35;1.10;;;11.60;99.90;;;;;;4933131;29;20060;-91
2021/04/10 00:36:34;;;;;;;5.32;1.40;;;11.60;99.90;;;;;;4935348;29;20035;-91
2021/04/10 00:39:00;;;;;;;2.83;1.27;;;11.90;99.90;;;;;;4933438;29;20114;-91
2021/04/10 00:41:25;;;;;;;4.68;1.30;;;11.60;99.90;;;;;;4934641;29;20102;-91
2021/04/10 00:43:51;;;;;;;2.58;1.25;;;11.60;99.90;;;;;;4934892;29;20436;-90
2021/04/10 00:46:17;;;;;;;3.42;1.10;;;11.60;99.90;;;;;;4933266;29;20043;-91
2021/04/10 00:48:42;;;;;;;4.25;1.13;;;11.60;99.90;;;;;;4935783;29;20484;-91
2021/04/10 00:51:08;;;;;;;3.13;1.50;;;11.50;99.90;;;;;;4934162;29;20028;-91
2021/04/10 00:53:36;;;;;;;3.08;1.25;;;11.80;99.90;;;;;;4933632;29;20389;-91
2021/04/10 00:56:04;;;;;;;1.83;1.48;;;11.40;99.90;;;;;;4934523;29;20024;-91
2021/04/10 00:58:34;;;;;;;3.30;1.17;;;11.50;99.90;;;;;;4934320;29;20028;-91
2021/04/10 01:01:04;;;;;;;3.90;1.50;;;11.50;99.90;;;;;;4934916;29;20121;-91
2021/04/10 01:03:30;;;;;;;3.92;1.50;;;11.50;99.90;;;;;;4934773;29;20035;-91
2021/04/10 01:05:57;;;;;;;3.53;1.20;;;11.60;99.90;;;;;;4934174;29;20048;-90
2021/04/10 01:08:22;;;;;;;4.72;1.40;;;11.60;99.90;;;;;;4934848;29;20031;-91
2021/04/10 01:10:48;;;;;;;4.57;1.50;;;11.60;99.90;;;;;;4934036;29;20035;-91
2021/04/10 01:13:24;;;;;;;3.17;1.35;;;11.50;99.90;;;;;;4935840;29;20095;-91
2021/04/10 01:16:02;;;;;;;2.90;1.10;;;11.40;99.90;;;;;;4933469;29;20036;-90
2021/04/10 01:18:58;;;;;;;3.25;1.30;;;11.50;99.90;;;;;;4932459;29;20031;-91
2021/04/10 01:21:49;;;;;;;3.13;1.40;;;11.50;99.90;;;;;;4933560;29;20039;-91
2021/04/10 01:24:14;;;;;;;4.93;1.52;;;11.50;99.90;;;;;;4932242;29;20039;-90
2021/04/10 01:27:28;;;;;;;1.95;1.20;;;11.80;99.90;;;;;;4933972;29;20039;-90
2021/04/10 01:29:57;;;;;;;3.25;1.20;;;11.40;99.90;;;;;;4930792;29;20062;-90
2021/04/10 01:32:29;;;;;;;3.17;1.30;;;11.40;99.90;;;;;;4932585;29;20028;-91
2021/04/10 01:35:05;;;;;;;3.88;1.35;;;11.30;99.90;;;;;;4964855;28;20028;-91
2021/04/10 01:37:33;;;;;;;2.70;1.20;;;11.30;99.90;;;;;;4932445;29;20036;-91
2021/04/10 01:40:01;;;;;;;3.22;1.30;;;11.40;99.90;;;;;;4934762;29;20043;-91
2021/04/10 01:42:29;;;;;;;2.67;1.17;;;11.40;99.90;;;;;;4934130;29;20366;-91
2021/04/10 01:44:58;;;;;;;4.57;1.40;;;11.40;99.90;;;;;;4931913;29;20123;-91
2021/04/10 01:47:24;;;;;;;3.45;1.40;;;11.50;99.90;;;;;;4933718;29;20034;-91
2021/04/10 01:49:50;;;;;;;3.38;1.50;;;11.50;99.90;;;;;;4934073;29;20031;-90
2021/04/10 01:52:18;;;;;;;5.00;1.42;;;11.50;99.90;;;;;;4933588;29;20118;-86
2021/04/10 01:54:45;;;;;;;3.53;1.25;;;11.30;99.90;;;;;;4931543;29;20494;-91
2021/04/10 01:57:12;;;;;;;3.20;1.13;;;11.30;99.90;;;;;;4932186;29;20094;-91
2021/04/10 01:59:47;;;;;;;2.05;1.33;;;11.40;99.90;;;;;;4933169;29;20050;-91
2021/04/10 02:02:14;;;;;;;3.10;2.30;;;11.40;99.90;;;;;;4933638;29;20388;-91
2021/04/10 02:04:44;;;;;;;3.22;1.30;;;11.40;99.90;;;;;;4933419;29;20052;-90
2021/04/10 02:07:10;;;;;;;4.03;1.63;;;11.40;99.90;;;;;;4933948;29;20032;-90
2021/04/10 02:09:40;;;;;;;2.30;1.42;;;11.30;99.90;;;;;;4934324;29;20035;-90
2021/04/10 02:12:06;;;;;;;4.43;1.75;;;11.30;99.90;;;;;;4933399;29;20038;-91
2021/04/10 02:14:33;;;;;;;3.42;1.77;;;11.30;99.90;;;;;;4933395;29;20048;-91
2021/04/10 02:16:59;;;;;;;3.33;1.50;;;11.40;99.90;;;;;;4932311;29;20029;-90
2021/04/10 02:19:24;;;;;;;2.92;1.20;;;11.40;99.90;;;;;;4933398;29;20046;-90
2021/04/10 02:21:50;;;;;;;3.55;1.20;;;11.40;99.90;;;;;;4934347;29;20451;-91
2021/04/10 02:24:16;;;;;;;3.47;1.65;;;11.40;99.90;;;;;;4932182;29;20032;-91
2021/04/10 02:26:42;;;;;;;3.15;1.25;;;11.30;99.90;;;;;;4928033;29;20102;-91
2021/04/10 02:29:10;;;;;;;2.30;1.17;;;11.30;99.90;;;;;;4933595;29;20102;-91
2021/04/10 02:31:44;;;;;;;2.67;1.55;;;11.30;99.90;;;;;;4932606;29;20409;-91
2021/04/10 02:34:19;;;;;;;2.70;1.27;;;11.40;99.90;;;;;;4916434;29;20032;-90
2021/04/10 02:36:49;;;;;;;3.88;1.38;;;11.30;99.90;;;;;;4931683;29;20066;-89
2021/04/10 02:39:16;;;;;;;4.50;1.30;;;11.30;99.90;;;;;;4933277;29;20519;-91
2021/04/10 02:41:46;;;;;;;2.97;1.00;;;11.30;99.90;;;;;;4932279;29;20075;-91
2021/04/10 02:44:15;;;;;;;2.38;1.35;;;11.20;99.90;;;;;;4933205;29;20369;-91
2021/04/10 02:46:47;;;;;;;2.78;1.20;;;11.20;99.90;;;;;;4933466;29;20036;-91
2021/04/10 02:49:17;;;;;;;3.88;1.35;;;11.20;99.90;;;;;;4934545;29;20058;-91
2021/04/10 02:51:47;;;;;;;2.58;1.17;;;11.20;99.90;;;;;;4932908;29;20385;-91
2021/04/10 02:54:16;;;;;;;2.35;1.20;;;11.20;99.90;;;;;;4933057;29;20024;-91
2021/04/10 02:56:53;;;;;;;1.45;1.00;;;11.20;99.90;;;;;;4931698;29;20043;-91
2021/04/10 02:59:20;;;;;;;1.88;1.13;;;11.30;99.90;;;;;;4960984;28;20082;-90
2021/04/10 03:01:47;;;;;;;4.05;1.35;;;11.30;99.90;;;;;;4933124;29;20433;-91
2021/04/10 03:04:13;;;;;;;3.22;1.25;;;11.30;99.90;;;;;;4934476;29;20087;-91
2021/04/10 03:06:40;;;;;;;2.22;1.30;;;11.30;99.90;;;;;;4932452;29;20504;-91
2021/04/10 03:09:09;;;;;;;4.00;1.50;;;11.20;99.90;;;;;;4932913;29;20374;-90
2021/04/10 03:11:35;;;;;;;4.15;1.13;;;11.20;99.90;;;;;;4932919;29;20032;-90
2021/04/10 03:14:04;;;;;;;2.47;1.23;;;11.20;99.90;;;;;;4930589;29;20031;-91
2021/04/10 03:16:31;;;;;;;4.30;1.45;;;11.10;99.90;;;;;;4935156;29;20103;-91
2021/04/10 03:18:58;;;;;;;5.55;1.50;;;11.10;99.90;;;;;;4938370;29;20148;-91
2021/04/10 03:21:24;;;;;;;2.55;1.30;;;11.20;99.90;;;;;;4933857;29;20539;-91
2021/04/10 03:23:50;;;;;;;4.47;1.30;;;11.40;99.90;;;;;;4930482;29;20028;-91
2021/04/10 03:26:18;;;;;;;4.38;1.13;;;11.20;99.90;;;;;;4936369;29;20035;-91
2021/04/10 03:28:45;;;;;;;2.35;1.50;;;11.20;99.90;;;;;;4936046;29;20035;-91
2021/04/10 03:31:12;;;;;;;2.33;1.23;;;11.20;99.90;;;;;;4938016;29;20036;-92
2021/04/10 03:33:38;;;;;;;2.50;1.23;;;11.30;99.90;;;;;;4934984;29;20067;-91
2021/04/10 03:36:05;;;;;;;4.10;1.35;;;11.30;99.90;;;;;;4931978;29;20458;-90
2021/04/10 03:38:32;;;;;;;2.25;1.10;;;11.30;99.90;;;;;;4935894;29;20428;-92
2021/04/10 03:41:05;;;;;;;1.88;0.98;;;11.30;99.90;;;;;;4936397;29;20031;-91
2021/04/10 03:43:31;;;;;;;2.28;1.30;;;11.30;99.90;;;;;;4935816;29;20024;-90
2021/04/10 03:45:57;;;;;;;5.15;1.27;;;11.30;99.90;;;;;;4936732;29;20032;-91
2021/04/10 03:48:23;;;;;;;2.28;1.23;;;11.30;99.90;;;;;;4965165;28;20144;-91
2021/04/10 03:50:48;;;;;;;3.90;1.25;;;11.30;99.90;;;;;;4934004;29;20135;-91
2021/04/10 03:53:14;;;;;;;2.90;1.27;;;11.30;99.90;;;;;;4934178;29;20023;-91
2021/04/10 03:55:40;;;;;;;2.63;1.30;;;11.30;99.90;;;;;;4935992;29;20040;-91
2021/04/10 03:58:05;;;;;;;2.40;1.30;;;11.20;99.90;;;;;;4937720;29;20078;-91
2021/04/10 04:00:31;;;;;;;5.78;1.50;;;11.20;99.90;;;;;;4934389;29;20051;-90
2021/04/10 04:02:57;;;;;;;4.45;1.20;;;11.20;99.90;;;;;;4935210;29;20031;-91
2021/04/10 04:05:23;;;;;;;2.55;1.13;;;11.50;99.90;;;;;;4934882;29;20055;-91
2021/04/10 04:07:49;;;;;;;3.28;1.27;;;11.20;99.90;;;;;;4935496;29;20023;-90
2021/04/10 04:10:16;;;;;;;2.35;1.23;;;11.10;99.90;;;;;;4936882;29;20519;-91
2021/04/10 04:12:43;;;;;;;2.55;1.15;;;11.10;99.90;;;;;;4936333;29;20028;-90
2021/04/10 04:15:08;;;;;;;3.45;1.52;;;11.00;99.90;;;;;;4935864;29;20428;-91
2021/04/10 04:17:34;;;;;;;2.45;1.20;;;11.00;99.90;;;;;;4935027;29;20023;-91
2021/04/10 04:20:00;;;;;;;1.88;1.10;;;11.00;99.90;;;;;;4934233;29;20134;-91
2021/04/10 04:22:26;;;;;;;3.85;1.38;;;11.30;99.90;;;;;;4935327;29;20099;-90
2021/04/10 04:24:51;;;;;;;3.63;1.35;;;11.00;99.90;;;;;;4937483;29;20024;-91
2021/04/10 04:27:17;;;;;;;4.15;1.20;;;11.00;99.90;;;;;;4933913;29;20408;-91
2021/04/10 04:29:43;;;;;;;2.60;1.20;;;11.00;99.90;;;;;;4929954;29;20035;-91
2021/04/10 04:32:09;;;;;;;3.85;1.20;;;10.90;99.90;;;;;;4933288;29;20066;-90
2021/04/10 04:34:37;;;;;;;3.67;1.17;;;11.00;99.90;;;;;;4934035;29;20024;-91
2021/04/10 04:37:06;;;;;;;4.70;1.50;;;11.20;99.90;;;;;;4937054;29;20028;-91
2021/04/10 04:39:32;;;;;;;1.92;1.10;;;11.00;99.90;;;;;;4934465;29;20044;-91
2021/04/10 04:41:59;;;;;;;5.13;1.65;;;11.00;99.90;;;;;;4934740;29;20031;-91
2021/04/10 04:44:26;;;;;;;4.00;1.80;;;10.90;99.90;;;;;;4935177;29;20401;-91
2021/04/10 04:46:51;;;;;;;3.05;1.50;;;10.90;99.90;;;;;;4933217;29;20440;-91
2021/04/10 04:49:17;;;;;;;6.07;1.60;;;10.90;99.90;;;;;;4933903;29;20027;-91
2021/04/10 04:51:43;;;;;;;2.50;1.58;;;10.80;99.90;;;;;;4935850;29;20476;-90
2021/04/10 04:54:08;;;;;;;4.22;1.50;;;10.80;99.90;;;;;;4932754;29;20199;-91
2021/04/10 04:56:34;;;;;;;5.25;1.65;;;10.70;99.90;;;;;;4934444;29;20396;-91
2021/04/10 04:58:59;;;;;;;5.85;1.40;;;10.80;99.90;;;;;;4934582;29;20028;-90
2021/04/10 05:01:25;;;;;;;4.25;1.55;;;10.70;99.90;;;;;;4934485;29;20036;-91
2021/04/10 05:03:51;;;;;;;3.00;1.40;;;10.70;99.90;;;;;;4935801;29;20067;-91
2021/04/10 05:06:16;;;;;;;4.50;1.40;;;10.80;99.90;;;;;;4934605;29;20142;-91
2021/04/10 05:08:42;;;;;;;4.68;1.63;;;10.80;99.90;;;;;;4933793;29;20031;-91
2021/04/10 05:11:08;;;;;;;2.55;1.30;;;10.70;99.90;;;;;;4932599;29;20497;-91
2021/04/10 05:13:33;;;;;;;3.58;1.42;;;10.90;99.90;;;;;;4934699;29;20110;-91
2021/04/10 05:15:59;;;;;;;3.17;1.35;;;10.90;99.90;;;;;;4934566;29;20036;-91
2021/04/10 05:18:25;;;;;;;3.22;1.70;;;10.80;99.90;;;;;;4935428;29;20039;-91
2021/04/10 05:20:51;;;;;;;2.35;1.35;;;10.90;99.90;;;;;;4933917;29;20039;-91
2021/04/10 05:23:21;;;;;;;5.32;1.52;;;10.90;99.90;;;;;;4932113;29;20031;-92
2021/04/10 05:25:47;;;;;;;2.45;1.20;;;10.90;99.90;;;;;;4932156;29;20031;-92
2021/04/10 05:28:12;;;;;;;1.88;1.30;;;10.90;99.90;;;;;;4935349;29;20034;-91
2021/04/10 05:30:38;;;;;;;3.63;1.27;;;10.90;99.90;;;;;;4934275;29;20023;-91
2021/04/10 05:33:04;;;;;;;4.55;1.42;;;10.90;99.90;;;;;;4932941;29;20526;-93
2021/04/10 05:35:30;;;;;;;2.20;1.60;;;10.90;99.90;;;;;;4933895;29;20035;-90
2021/04/10 05:37:55;;;;;;;4.07;1.33;;;11.00;99.90;;;;;;4931220;29;20087;-93
2021/04/10 05:40:21;;;;;;;2.85;1.40;;;11.00;99.90;;;;;;4948027;28;20040;-92
2021/04/10 05:42:47;;;;;;;5.60;1.45;;;11.00;99.90;;;;;;4935705;29;20481;-92
2021/04/10 05:45:13;;;;;;;2.65;1.30;;;11.00;99.90;;;;;;4933662;29;20115;-95
2021/04/10 05:47:39;;;;;;;1.80;1.30;;;11.00;99.90;;;;;;4933749;29;20055;-91
2021/04/10 05:50:06;;;;;;;3.40;1.40;;;10.90;99.90;;;;;;4931862;29;20031;-91
2021/04/10 05:52:32;;;;;;;3.28;1.20;;;11.00;99.90;;;;;;4930966;29;20028;-91
2021/04/10 05:54:58;;;;;;;1.35;1.02;;;11.00;99.90;;;;;;4934753;29;20031;-91
2021/04/10 05:57:23;;;;;;;2.72;1.33;;;11.00;99.90;;;;;;4932836;29;20503;-89
2021/04/10 05:59:49;;;;;;;7.30;1.40;;;11.00;99.90;;;;;;4932348;29;20051;-90
2021/04/10 06:02:15;;;;;;;2.25;1.05;;;11.00;99.90;;;;;;4930058;29;20059;-89
2021/04/10 06:04:40;;;;;;;3.58;1.20;;;11.00;99.90;;;;;;4932844;29;20477;-90
2021/04/10 06:07:06;;;;;;;1.60;0.98;;;11.10;99.90;;;;;;4934943;29;20094;-91
2021/04/10 06:09:32;;;;;;;2.17;1.20;;;11.00;99.90;;;;;;4933186;29;20480;-91
2021/04/10 06:11:57;;;;;;;3.22;1.10;;;11.00;99.90;;;;;;4933183;29;20035;-91
2021/04/10 06:14:23;;;;;;;3.42;1.10;;;11.00;99.90;;;;;;4932150;29;20504;-91
2021/04/10 06:16:50;;;;;;;2.38;1.13;;;11.00;99.90;;;;;;4933079;29;20059;-92
2021/04/10 06:19:16;;;;;;;2.95;1.20;;;11.00;99.90;;;;;;4934037;29;20027;-91
2021/04/10 06:21:42;;;;;;;4.53;1.10;;;11.00;99.90;;;;;;4933564;29;20031;-91
2021/04/10 06:24:08;;;;;;;1.55;1.08;;;11.00;99.90;;;;;;4963127;28;20087;-88
2021/04/10 06:26:34;;;;;;;3.75;1.20;;;11.10;99.90;;;;;;4932689;29;20429;-88
2021/04/10 06:29:00;;;;;;;1.67;1.20;;;11.00;99.90;;;;;;4930261;29;20040;-89
2021/04/10 06:31:26;;;;;;;5.13;1.55;;;11.40;99.90;;;;;;4931001;29;20511;-88
2021/04/10 06:33:51;;;;;;;4.43;1.40;;;11.10;99.90;;;;;;4934176;29;20110;-88
2021/04/10 06:36:17;;;;;;;1.98;1.10;;;11.10;99.90;;;;;;4932724;29;20020;-88
2021/04/10 06:38:43;;;;;;;2.75;1.00;;;11.10;99.90;;;;;;4932569;29;20419;-88
2021/04/10 06:41:13;;;;;;;1.70;1.10;;;11.20;99.90;;;;;;4932628;29;20126;-88
2021/04/10 06:43:41;;;;;;;5.10;2.00;;;11.30;99.90;;;;;;4916593;29;20516;-88
2021/04/10 06:46:07;;;;;;;3.67;1.20;;;11.30;99.90;;;;;;4928902;29;20130;-88
2021/04/10 06:48:34;;;;;;;1.92;1.30;;;11.40;99.90;;;;;;4932122;29;20487;-89
2021/04/10 06:51:01;;;;;;;2.13;1.52;;;11.40;99.90;;;;;;4932221;29;20028;-89
2021/04/10 06:53:29;;;;;;;3.08;1.00;;;11.40;99.90;;;;;;4934440;29;20027;-91
2021/04/10 06:55:58;;;;;;;1.63;1.23;;;11.50;99.90;;;;;;4938549;29;20039;-93
2021/04/10 06:59:11;;;;;;;3.58;1.35;;;11.40;99.90;;;;;;4937273;29;20397;-91
2021/04/10 07:01:39;;;;;;;1.73;1.25;;;11.40;99.90;;;;;;4895145;29;20041;-91
2021/04/10 07:04:05;;;;;;;1.30;0.98;;;11.60;99.90;;;;;;4898389;29;20638;-92
2021/04/10 07:06:31;;;;;;;1.10;1.00;;;11.60;99.90;;;;;;4895379;29;20151;-91
2021/04/10 07:08:58;;;;;;;1.90;1.20;;;11.60;99.90;;;;;;4879241;29;20097;-91
2021/04/10 07:11:23;;;;;;;3.72;1.10;;;11.80;99.90;;;;;;4895324;29;20024;-91
2021/04/10 07:13:49;;;;;;;1.35;1.00;;;11.60;99.90;;;;;;4895968;29;20039;-89
2021/04/10 07:16:15;;;;;;;3.22;1.17;;;11.70;99.90;;;;;;4897041;29;20072;-89
2021/04/10 07:18:40;;;;;;;1.77;1.17;;;11.80;99.90;;;;;;4896488;29;20071;-88
2021/04/10 07:21:16;;;;;;;3.67;1.25;;;11.70;99.90;;;;;;4895661;29;20045;-92
2021/04/10 07:23:52;;;;;;;2.70;1.20;;;11.90;99.90;;;;;;4894212;29;20533;-91
2021/04/10 07:26:40;;;;;;;2.05;1.00;;;11.90;99.90;;;;;;4895655;29;20639;-92
2021/04/10 07:29:28;;;;;;;1.65;1.10;;;12.00;99.90;;;;;;4894045;29;20526;-89
2021/04/10 07:31:53;;;;;;;2.80;1.20;;;12.10;99.90;;;;;;4882865;29;20454;-89
2021/04/10 07:34:21;;;;;;;5.55;1.20;;;12.20;99.90;;;;;;4881523;29;20073;-89
2021/04/10 07:37:01;;;;;;;3.90;1.00;;;12.50;99.90;;;;;;4935595;29;20039;-89
2021/04/10 07:39:27;;;;;;;2.60;1.20;;;12.60;99.90;;;;;;4935150;29;20036;-89
2021/04/10 07:42:04;;;;;;;2.13;1.40;;;12.60;99.90;;;;;;4933798;29;20034;-89
2021/04/10 07:44:41;;;;;;;4.13;1.20;;;12.80;99.90;;;;;;4932951;29;20546;-89
2021/04/10 07:47:09;;;;;;;1.33;1.05;;;12.90;99.90;;;;;;4934400;29;20078;-90
2021/04/10 07:49:38;;;;;;;3.25;1.10;;;12.80;99.90;;;;;;4935894;29;20035;-91
2021/04/10 07:52:05;;;;;;;2.15;1.10;;;12.80;99.90;;;;;;4937143;29;20110;-88
2021/04/10 07:54:39;;;;;;;2.42;1.25;;;12.60;99.90;;;;;;4934911;29;20032;-90
2021/04/10 07:57:06;;;;;;;6.07;1.30;;;12.70;99.90;;;;;;4934817;29;20036;-91
2021/04/10 07:59:50;;;;;;;3.35;1.25;;;13.00;99.90;;;;;;4932869;29;20508;-91
2021/04/10 08:02:17;;;;;;;2.42;1.30;;;13.30;99.90;;;;;;4934034;29;20241;-90
2021/04/10 08:05:07;;;;;;;3.40;1.20;;;13.20;99.90;;;;;;4934864;29;20032;-91
2021/04/10 08:07:34;;;;;;;5.43;1.20;;;13.10;99.90;;;;;;4934470;29;20036;-91
2021/04/10 08:10:09;;;;;;;5.93;1.23;;;13.20;99.90;;;;;;4936237;29;20087;-89
2021/04/10 08:12:38;;;;;;;4.03;1.08;;;12.90;99.90;;;;;;4935406;29;20042;-88
2021/04/10 08:15:08;;;;;;;3.95;1.30;;;12.60;99.90;;;;;;4933564;29;20489;-89
2021/04/10 08:17:39;;;;;;;5.10;1.25;;;12.90;99.90;;;;;;4934522;29;20091;-88
2021/04/10 08:20:28;;;;;;;3.15;1.08;;;12.90;99.90;;;;;;4933590;29;20118;-92
2021/04/10 08:23:18;;;;;;;4.43;1.10;;;12.90;99.90;;;;;;4930121;29;20130;-94
2021/04/10 08:25:44;;;;;;;3.85;1.23;;;13.00;99.90;;;;;;4920996;29;20040;-95
2021/04/10 08:28:10;;;;;;;11.25;1.77;;;13.20;99.90;;;;;;4937525;29;20385;-92
2021/04/10 08:30:35;;;;;;;5.70;1.30;;;13.00;99.90;;;;;;4934861;29;20039;-93
2021/04/10 08:33:01;;;;;;;4.93;1.48;;;13.00;99.90;;;;;;4929711;29;20038;-93
2021/04/10 08:35:27;;;;;;;2.15;1.10;;;13.20;99.90;;;;;;4937125;29;20033;-93
2021/04/10 08:38:02;;;;;;;2.85;1.20;;;13.40;99.90;;;;;;4933292;29;20032;-94
2021/04/10 08:40:30;;;;;;;2.88;1.00;;;13.50;99.90;;;;;;4936625;29;20032;-93
2021/04/10 08:42:59;;;;;;;2.00;1.13;;;13.30;99.90;;;;;;4939936;29;20043;-96
2021/04/10 08:45:34;;;;;;;2.72;1.40;;;13.50;99.90;;;;;;4942896;29;20032;-96
2021/04/10 08:48:05;;;;;;;5.07;1.52;;;13.80;99.90;;;;;;4936934;29;20072;-93
2021/04/10 08:50:35;;;;;;;6.93;1.70;;;13.80;99.90;;;;;;4932725;29;20031;-93
2021/04/10 08:53:09;;;;;;;2.92;1.10;;;13.80;99.90;;;;;;4930524;29;20032;-93
2021/04/10 08:55:37;;;;;;;4.32;1.15;;;13.90;99.90;;;;;;4934094;29;20565;-93
2021/04/10 08:58:28;;;;;;;2.13;1.30;;;14.10;99.90;;;;;;4959610;28;20031;-92
2021/04/10 09:00:56;;;;;;;3.50;1.30;;;14.20;99.90;;;;;;4935248;29;20046;-93
2021/04/10 09:03:45;;;;;;;3.00;1.20;;;14.10;99.90;;;;;;4931821;29;20028;-93
2021/04/10 09:06:15;;;;;;;2.15;1.20;;;14.00;99.90;;;;;;4932966;29;20131;-94
2021/04/10 09:08:40;;;;;;;3.08;1.00;;;14.20;99.90;;;;;;4925351;29;20095;-93
2021/04/10 09:11:08;;;;;;;4.22;1.50;;;14.10;99.90;;;;;;4935911;29;20028;-94
2021/04/10 09:13:48;;;;;;;2.80;1.25;;;14.00;99.90;;;;;;4964809;28;20122;-94
2021/04/10 09:16:27;;;;;;;4.07;1.38;;;14.30;99.90;;;;;;4934234;29;20031;-94
2021/04/10 09:19:00;;;;;;;5.25;1.80;;;14.50;99.90;;;;;;4936708;29;20035;-94
2021/04/10 09:21:44;;;;;;;2.95;1.30;;;14.00;99.90;;;;;;4918180;29;20505;-93
2021/04/10 09:24:28;;;;;;;4.03;1.42;;;13.80;99.90;;;;;;4917855;29;20017;-95
2021/04/10 09:27:04;;;;;;;2.75;1.30;;;13.90;99.90;;;;;;4934067;29;20047;-94
2021/04/10 09:29:44;;;;;;;2.72;1.67;;;14.00;99.90;;;;;;4935220;29;20075;-93
2021/04/10 09:32:11;;;;;;;2.22;0.90;;;13.60;99.90;;;;;;4933941;29;20028;-94
2021/04/10 09:34:43;;;;;;;3.03;1.27;;;13.60;99.90;;;;;;4920618;29;20180;-93
2021/04/10 09:37:21;;;;;;;2.67;1.05;;;13.80;99.90;;;;;;4963438;28;20095;-93
2021/04/10 09:40:04;;;;;;;2.15;1.35;;;13.50;99.90;;;;;;4929694;29;20043;-93
2021/04/10 09:42:37;;;;;;;5.07;1.50;;;13.60;99.90;;;;;;4934021;29;20042;-94
2021/04/10 09:45:10;;;;;;;2.78;1.48;;;13.80;99.90;;;;;;4922362;29;20035;-93
2021/04/10 09:48:01;;;;;;;1.55;0.98;;;13.80;99.90;;;;;;4936128;29;20054;-93
2021/04/10 09:50:30;;;;;;;3.22;1.38;;;13.80;99.90;;;;;;4951832;29;20034;-96
2021/04/10 09:53:05;;;;;;;5.57;1.10;;;13.70;99.90;;;;;;4948645;29;20028;-96
2021/04/10 09:55:32;;;;;;;2.83;1.15;;;13.50;99.90;;;;;;4952080;29;20020;-96
2021/04/10 09:58:06;;;;;;;3.75;1.20;;;13.60;99.90;;;;;;4942726;29;20031;-92
2021/04/10 10:00:42;;;;;;;75.40;8.13;;;13.60;99.90;;;;;;4935818;29;20059;-95
2021/04/10 10:03:10;;;;;;;2.90;1.30;;;13.80;99.90;;;;;;4936642;29;20024;-95
2021/04/10 10:05:49;;;;;;;3.70;1.17;;;13.90;99.90;;;;;;4942637;29;20111;-96
2021/04/10 10:08:18;;;;;;;1.77;0.90;;;13.90;99.90;;;;;;4939107;29;20044;-94
2021/04/10 10:10:52;;;;;;;4.57;1.17;;;13.80;99.90;;;;;;4932623;29;20564;-94
2021/04/10 10:13:20;;;;;;;2.80;1.10;;;13.90;99.90;;;;;;4932545;29;20098;-94
2021/04/10 10:15:48;;;;;;;3.30;1.20;;;14.00;99.90;;;;;;4934631;29;20038;-91
2021/04/10 10:18:20;;;;;;;3.60;1.23;;;14.10;99.90;;;;;;4933926;29;20050;-94
2021/04/10 10:20:58;;;;;;;2.45;1.20;;;14.10;99.90;;;;;;4937924;29;20063;-96
2021/04/10 10:23:33;;;;;;;4.80;1.40;;;13.80;99.90;;;;;;4939166;29;20031;-94
2021/04/10 10:26:09;;;;;;;1.73;1.02;;;13.60;99.90;;;;;;4941491;29;20516;-95
2021/04/10 10:28:36;;;;;;;4.97;1.30;;;13.90;99.90;;;;;;4940507;29;20106;-96
2021/04/10 10:31:14;;;;;;;2.88;1.33;;;14.00;99.90;;;;;;4942400;29;20148;-96
2021/04/10 10:33:41;;;;;;;2.60;1.17;;;13.80;99.90;;;;;;4939025;29;20120;-96
2021/04/10 10:36:07;;;;;;;1.80;1.20;;;13.90;99.90;;;;;;4941887;29;20051;-96
2021/04/10 10:38:45;;;;;;;2.08;1.20;;;14.10;99.90;;;;;;4942199;29;20114;-96
2021/04/10 10:41:13;;;;;;;3.13;1.20;;;14.10;99.90;;;;;;4944517;29;20566;-96
2021/04/10 10:43:40;;;;;;;5.72;1.50;;;14.00;99.90;;;;;;4945365;29;20046;-96
2021/04/10 10:46:08;;;;;;;3.40;1.60;;;14.00;99.90;;;;;;4955261;29;20027;-96
2021/04/10 10:48:43;;;;;;;3.70;1.02;;;14.30;99.90;;;;;;4950237;29;20020;-90
2021/04/10 10:51:16;;;;;;;2.65;1.20;;;14.30;99.90;;;;;;4933780;29;20568;-91
2021/04/10 10:53:48;;;;;;;5.07;1.20;;;14.50;99.90;;;;;;4939223;29;20024;-94
2021/04/10 10:56:30;;;;;;;2.33;1.17;;;14.70;99.90;;;;;;4935956;29;20042;-92
2021/04/10 10:59:00;;;;;;;3.17;1.10;;;14.40;99.90;;;;;;4938069;29;20032;-94
2021/04/10 11:01:35;;;;;;;2.58;1.13;;;14.50;99.90;;;;;;4941253;29;20075;-96
2021/04/10 11:04:20;;;;;;;6.03;1.10;;;14.60;99.90;;;;;;4942512;29;20473;-89
2021/04/10 11:06:48;;;;;;;3.90;2.15;;;14.70;99.90;;;;;;4941542;29;20059;-90
2021/04/10 11:09:28;;;;;;;2.92;0.95;;;15.00;99.90;;;;;;4922715;29;20032;-90
2021/04/10 11:12:04;;;;;;;3.50;1.05;;;14.80;99.90;;;;;;4929183;29;20040;-88
2021/04/10 11:14:32;;;;;;;2.58;1.10;;;14.80;99.90;;;;;;4933759;29;20135;-87
2021/04/10 11:16:59;;;;;;;4.95;1.20;;;14.90;99.90;;;;;;4924203;29;20118;-90
2021/04/10 11:19:26;;;;;;;1.75;1.20;;;14.90;99.90;;;;;;4934972;29;20023;-91
2021/04/10 11:21:55;;;;;;;3.60;1.10;;;15.10;99.90;;;;;;4937713;29;20095;-92
2021/04/10 11:24:22;;;;;;;4.90;1.73;;;15.10;99.90;;;;;;4935523;29;20038;-90
2021/04/10 11:26:55;;;;;;;5.50;1.23;;;15.10;99.90;;;;;;4924927;29;20122;-94
2021/04/10 11:29:47;;;;;;;2.38;1.20;;;15.40;99.90;;;;;;4929583;29;20484;-93
2021/04/10 11:32:26;;;;;;;3.38;1.00;;;15.90;99.90;;;;;;4928237;29;20039;-92
2021/04/10 11:35:05;;;;;;;2.17;1.05;;;16.40;99.90;;;;;;4931584;29;20036;-93
2021/04/10 11:37:31;;;;;;;4.15;1.00;;;16.60;99.90;;;;;;4935922;29;20103;-88
2021/04/10 11:39:59;;;;;;;1.25;1.10;;;16.80;99.90;;;;;;4937123;29;20038;-95
2021/04/10 11:42:37;;;;;;;5.53;1.17;;;16.60;99.90;;;;;;4963619;28;20413;-95
2021/04/10 11:45:21;;;;;;;2.85;1.13;;;16.50;99.90;;;;;;4930251;29;20024;-96
2021/04/10 11:47:47;;;;;;;2.20;1.08;;;16.80;99.90;;;;;;4937021;29;20237;-93
2021/04/10 11:50:21;;;;;;;1.13;0.80;;;16.90;99.90;;;;;;4937109;29;20112;-96
2021/04/10 11:52:48;;;;;;;3.20;1.10;;;16.80;99.90;;;;;;4938255;29;20413;-94
2021/04/10 11:55:17;;;;;;;3.25;1.10;;;17.00;99.90;;;;;;4936915;29;20489;-94
2021/04/10 11:57:44;;;;;;;3.42;1.05;;;17.10;99.90;;;;;;4939514;29;20039;-96
2021/04/10 12:00:23;;;;;;;2.22;0.93;;;17.20;99.90;;;;;;4935433;29;20130;-96
2021/04/10 12:02:49;;;;;;;1.42;1.00;;;17.30;99.90;;;;;;4936468;29;20036;-95
2021/04/10 12:05:29;;;;;;;3.78;1.10;;;17.10;99.90;;;;;;4936486;29;20056;-95
2021/04/10 12:08:05;;;;;;;2.60;1.23;;;17.50;99.90;;;;;;4936957;29;20035;-95
2021/04/10 12:10:31;;;;;;;2.53;1.10;;;17.50;99.90;;;;;;4937826;29;20020;-95
2021/04/10 12:12:57;;;;;;;1.55;1.02;;;17.20;99.90;;;;;;4937424;29;20382;-95
2021/04/10 12:15:27;;;;;;;4.28;1.17;;;17.20;99.90;;;;;;4931967;29;20032;-95
2021/04/10 12:17:53;;;;;;;3.35;1.00;;;17.40;99.90;;;;;;4933619;29;20102;-95
2021/04/10 12:20:19;;;;;;;3.20;0.95;;;18.20;99.90;;;;;;4936409;29;20039;-95
2021/04/10 12:22:44;;;;;;;2.97;1.40;;;20.20;99.90;;;;;;4937480;29;20027;-95
2021/04/10 12:25:10;;;;;;;1.30;1.10;;;19.80;99.90;;;;;;4937762;29;20035;-95
2021/04/10 12:27:36;;;;;;;1.20;1.08;;;19.80;99.90;;;;;;4937016;29;20050;-95
2021/04/10 12:30:04;;;;;;;3.88;1.02;;;18.70;99.90;;;;;;4938169;29;20556;-95
2021/04/10 12:32:29;;;;;;;2.55;1.00;;;18.10;99.90;;;;;;4938125;29;20027;-95
2021/04/10 12:34:55;;;;;;;1.85;0.98;;;18.10;99.90;;;;;;4936393;29;20031;-95
2021/04/10 12:37:21;;;;;;;1.17;1.00;;;18.30;99.90;;;;;;4938625;29;20067;-95
2021/04/10 12:39:47;;;;;;;3.45;1.17;;;18.40;99.90;;;;;;4935685;29;20036;-96
2021/04/10 12:42:12;;;;;;;3.13;1.40;;;19.30;99.90;;;;;;4923956;29;20881;-95
2021/04/10 12:44:38;;;;;;;1.88;1.15;;;19.10;99.90;;;;;;4928245;29;20600;-95
2021/04/10 12:47:04;;;;;;;4.00;1.42;;;19.80;99.90;;;;;;4936909;29;20028;-95
2021/04/10 12:49:32;;;;;;;2.53;1.20;;;20.50;99.90;;;;;;4936143;29;20035;-96
2021/04/10 12:51:58;;;;;;;3.63;1.10;;;21.20;99.90;;;;;;4937595;29;20031;-95
2021/04/10 12:54:24;;;;;;;2.38;1.15;;;20.20;99.90;;;;;;4937082;29;20106;-96
2021/04/10 12:56:50;;;;;;;3.65;1.33;;;20.00;99.90;;;;;;4936808;29;20031;-96
2021/04/10 12:59:15;;;;;;;2.70;1.25;;;20.00;99.90;;;;;;4935579;29;20102;-95